Time;durP1;ratioP1;P1;durP2;ratioP2;P2;SDS_P1;SDS_P2;PMS_P1;PMS_P2;Temp;Humidity;BMP_temperature;BMP_pressure;BME280_temperature;BME280_humidity;BME280_pressure;Samples;Min_cycle;Max_cycle;Signal;HPM_P1;HPM_P2
2020/12/17 00:01:09;;;;;;;2.15;1.25;;;23.00;59.40;;;;;;6363868;22;20418;-72
2020/12/17 00:03:36;;;;;;;1.42;0.82;;;23.00;59.50;;;;;;6366124;22;20381;-75
2020/12/17 00:06:02;;;;;;;5.05;1.20;;;23.00;59.60;;;;;;6364986;22;19998;-73
2020/12/17 00:08:29;;;;;;;4.72;1.15;;;23.00;59.70;;;;;;6337487;22;20006;-72
2020/12/17 00:10:55;;;;;;;2.78;0.98;;;23.00;59.80;;;;;;6365843;22;20006;-76
2020/12/17 00:13:22;;;;;;;3.00;1.15;;;23.00;59.80;;;;;;6365076;22;19995;-75
2020/12/17 00:15:48;;;;;;;3.17;1.13;;;22.90;59.80;;;;;;6366067;22;20105;-75
2020/12/17 00:18:15;;;;;;;2.65;1.13;;;22.90;59.90;;;;;;6364802;22;20507;-75
2020/12/17 00:20:41;;;;;;;2.97;0.80;;;22.90;59.90;;;;;;6365538;22;19998;-76
2020/12/17 00:23:08;;;;;;;4.93;1.00;;;22.90;59.90;;;;;;6364470;22;19994;-75
2020/12/17 00:25:34;;;;;;;2.25;0.93;;;22.90;60.00;;;;;;6365613;22;20043;-75
2020/12/17 00:28:01;;;;;;;1.67;1.10;;;22.90;60.00;;;;;;6366002;22;20009;-74
2020/12/17 00:30:27;;;;;;;1.73;0.85;;;22.90;60.00;;;;;;6366009;22;20364;-76
2020/12/17 00:32:54;;;;;;;3.92;1.23;;;22.90;60.20;;;;;;6367220;22;19998;-76
2020/12/17 00:35:20;;;;;;;5.20;1.05;;;22.90;60.20;;;;;;6366098;22;20002;-75
2020/12/17 00:37:47;;;;;;;6.22;1.42;;;22.90;60.30;;;;;;6367234;22;20044;-75
2020/12/17 00:40:15;;;;;;;2.33;1.80;;;22.90;60.40;;;;;;6366624;22;20455;-76
2020/12/17 00:42:44;;;;;;;5.25;1.13;;;22.80;60.50;;;;;;6367663;22;20002;-76
2020/12/17 00:45:15;;;;;;;6.68;1.10;;;22.80;60.60;;;;;;6367762;22;20002;-76
2020/12/17 00:47:42;;;;;;;6.35;1.55;;;22.80;60.70;;;;;;6366229;22;19994;-77
2020/12/17 00:50:10;;;;;;;5.72;1.98;;;22.80;60.80;;;;;;6367548;22;20448;-76
2020/12/17 00:52:38;;;;;;;3.35;1.20;;;22.80;60.80;;;;;;6365987;22;20014;-77
2020/12/17 00:55:06;;;;;;;8.93;2.28;;;22.80;60.90;;;;;;6367804;22;19995;-73
2020/12/17 00:57:32;;;;;;;5.38;2.20;;;22.80;60.90;;;;;;6366134;22;20041;-76
2020/12/17 00:59:58;;;;;;;3.05;1.38;;;22.80;61.00;;;;;;6366881;22;20023;-75
2020/12/17 01:02:25;;;;;;;4.40;1.42;;;22.80;61.00;;;;;;6366916;22;20069;-74
2020/12/17 01:04:52;;;;;;;5.32;2.42;;;22.70;61.00;;;;;;6366216;22;19997;-73
2020/12/17 01:07:18;;;;;;;5.18;1.45;;;22.70;61.00;;;;;;6367329;22;20033;-76
2020/12/17 01:09:45;;;;;;;3.75;1.35;;;22.70;61.00;;;;;;6365769;22;20022;-75
2020/12/17 01:12:12;;;;;;;3.08;1.85;;;22.70;61.10;;;;;;6367454;22;20378;-74
2020/12/17 01:14:39;;;;;;;7.45;2.03;;;22.70;61.00;;;;;;6365404;22;20330;-75
2020/12/17 01:17:06;;;;;;;3.80;1.30;;;22.70;61.00;;;;;;6367503;22;20360;-75
2020/12/17 01:19:33;;;;;;;4.78;1.27;;;22.70;61.00;;;;;;6366659;22;19994;-76
2020/12/17 01:22:00;;;;;;;5.20;1.52;;;22.70;61.10;;;;;;6366452;22;20078;-74
2020/12/17 01:24:27;;;;;;;7.57;1.77;;;22.60;61.00;;;;;;6366739;22;20018;-76
2020/12/17 01:26:55;;;;;;;4.18;1.80;;;22.60;61.00;;;;;;6365719;22;20025;-75
2020/12/17 01:29:22;;;;;;;8.73;1.90;;;22.60;61.00;;;;;;6367252;22;20034;-73
2020/12/17 01:31:49;;;;;;;6.35;1.83;;;22.60;61.00;;;;;;6365924;22;20473;-76
2020/12/17 01:34:15;;;;;;;6.35;2.78;;;22.60;61.00;;;;;;6367342;22;20002;-76
2020/12/17 01:36:42;;;;;;;6.03;1.80;;;22.60;61.00;;;;;;6367443;22;20422;-77
2020/12/17 01:39:09;;;;;;;5.45;2.05;;;22.60;61.00;;;;;;6365696;22;19995;-77
2020/12/17 01:41:35;;;;;;;4.68;1.70;;;22.60;61.00;;;;;;6366833;22;20002;-76
2020/12/17 01:44:03;;;;;;;4.65;2.13;;;22.60;61.00;;;;;;6365245;22;19990;-76
2020/12/17 01:46:30;;;;;;;4.82;1.77;;;22.60;61.00;;;;;;6367641;22;20005;-76
2020/12/17 01:49:00;;;;;;;4.72;1.60;;;22.60;60.90;;;;;;6365556;22;19994;-76
2020/12/17 01:51:27;;;;;;;2.92;1.33;;;22.50;60.90;;;;;;6366186;22;20434;-77
2020/12/17 01:53:55;;;;;;;4.32;1.48;;;22.50;60.90;;;;;;6366037;22;20001;-76
2020/12/17 01:56:23;;;;;;;3.40;2.13;;;22.50;60.90;;;;;;6366907;22;20002;-73
2020/12/17 01:59:04;;;;;;;6.60;1.90;;;22.50;61.00;;;;;;6366840;22;20029;-81
2020/12/17 02:01:32;;;;;;;4.13;1.50;;;22.50;61.00;;;;;;6365181;22;20002;-75
2020/12/17 02:04:01;;;;;;;4.55;3.03;;;22.50;61.10;;;;;;6366515;22;20052;-79
2020/12/17 02:06:28;;;;;;;7.85;5.30;;;22.50;61.20;;;;;;6364562;22;19994;-75
2020/12/17 02:08:54;;;;;;;6.25;3.50;;;22.40;61.20;;;;;;6366492;22;19998;-74
2020/12/17 02:11:21;;;;;;;6.82;3.13;;;22.50;61.40;;;;;;6365680;22;20393;-75
2020/12/17 02:13:48;;;;;;;4.32;2.13;;;22.50;61.50;;;;;;6366320;22;20056;-77
2020/12/17 02:16:15;;;;;;;6.13;1.83;;;22.50;61.60;;;;;;6366332;22;20002;-74
2020/12/17 02:18:44;;;;;;;8.82;1.98;;;22.40;61.50;;;;;;6365591;22;20081;-79
2020/12/17 02:21:12;;;;;;;5.95;2.30;;;22.40;61.60;;;;;;6366477;22;20041;-76
2020/12/17 02:23:40;;;;;;;5.07;1.88;;;22.40;61.70;;;;;;6365329;22;19995;-76
2020/12/17 02:26:07;;;;;;;4.28;1.55;;;22.40;61.70;;;;;;6366896;22;20311;-76
2020/12/17 02:28:34;;;;;;;5.70;1.92;;;22.40;61.70;;;;;;6365210;22;20005;-75
2020/12/17 02:31:00;;;;;;;3.75;1.70;;;22.40;61.80;;;;;;6366812;22;20045;-74
2020/12/17 02:33:27;;;;;;;4.50;1.35;;;22.40;61.80;;;;;;6366068;22;20022;-75
2020/12/17 02:35:54;;;;;;;3.38;1.27;;;22.40;61.90;;;;;;6364948;22;20069;-71
2020/12/17 02:38:21;;;;;;;7.43;1.80;;;22.30;61.90;;;;;;6366131;22;20008;-73
2020/12/17 02:40:48;;;;;;;3.20;1.20;;;22.30;62.00;;;;;;6364925;22;20037;-75
2020/12/17 02:43:15;;;;;;;3.85;1.42;;;22.30;62.00;;;;;;6361662;22;20005;-75
2020/12/17 02:45:49;;;;;;;3.53;1.63;;;22.30;62.00;;;;;;6364229;22;20512;-75
2020/12/17 02:48:17;;;;;;;3.13;1.58;;;22.30;62.10;;;;;;6365994;22;19998;-73
2020/12/17 02:50:44;;;;;;;4.43;2.00;;;22.30;62.10;;;;;;6364915;22;20506;-77
2020/12/17 02:53:11;;;;;;;5.78;1.20;;;22.30;62.10;;;;;;6364938;22;20002;-76
2020/12/17 02:55:38;;;;;;;3.67;1.30;;;22.30;62.10;;;;;;6364638;22;20009;-75
2020/12/17 02:58:06;;;;;;;6.93;4.53;;;22.30;62.10;;;;;;6336925;22;20357;-76
2020/12/17 03:00:33;;;;;;;10.40;6.40;;;22.30;62.20;;;;;;6365002;22;20073;-71
2020/12/17 03:03:00;;;;;;;14.02;9.35;;;22.20;62.10;;;;;;6364158;22;20002;-73
2020/12/17 03:05:27;;;;;;;13.70;6.97;;;22.30;62.20;;;;;;6366120;22;19998;-73
2020/12/17 03:07:54;;;;;;;9.43;5.45;;;22.20;62.10;;;;;;6365739;22;20002;-73
2020/12/17 03:10:21;;;;;;;7.25;4.15;;;22.30;62.20;;;;;;6363568;22;20034;-73
2020/12/17 03:12:47;;;;;;;4.30;2.97;;;22.30;62.20;;;;;;6365472;22;20037;-73
2020/12/17 03:15:14;;;;;;;6.43;2.50;;;22.30;62.20;;;;;;6364517;22;19998;-75
2020/12/17 03:17:41;;;;;;;7.13;1.95;;;22.20;62.10;;;;;;6365734;22;19998;-74
2020/12/17 03:20:12;;;;;;;5.75;2.72;;;22.20;62.20;;;;;;6364633;22;20048;-74
2020/12/17 03:22:39;;;;;;;3.63;1.50;;;22.20;62.20;;;;;;6366446;22;19998;-74
2020/12/17 03:25:08;;;;;;;3.50;1.42;;;22.20;62.10;;;;;;6365229;22;19995;-72
2020/12/17 03:27:35;;;;;;;3.72;1.48;;;22.20;62.10;;;;;;6365897;22;19997;-73
2020/12/17 03:30:06;;;;;;;4.25;1.25;;;22.20;62.00;;;;;;6366471;22;20038;-75
2020/12/17 03:32:32;;;;;;;4.55;1.45;;;22.20;62.00;;;;;;6364542;22;19999;-76
2020/12/17 03:34:59;;;;;;;7.68;2.97;;;22.20;62.00;;;;;;6366708;22;20112;-74
2020/12/17 03:37:25;;;;;;;6.53;3.33;;;22.20;62.00;;;;;;6364102;22;20005;-75
2020/12/17 03:39:52;;;;;;;4.72;3.35;;;22.20;61.90;;;;;;6366000;22;19994;-76
2020/12/17 03:42:19;;;;;;;7.20;2.33;;;22.20;61.90;;;;;;6364823;22;20002;-75
2020/12/17 03:44:45;;;;;;;3.53;2.00;;;22.20;61.90;;;;;;6365345;22;20483;-75
2020/12/17 03:47:12;;;;;;;4.57;2.10;;;22.20;61.80;;;;;;6365364;22;19995;-75
2020/12/17 03:49:38;;;;;;;5.05;1.92;;;22.20;61.80;;;;;;6364748;22;20363;-75
2020/12/17 03:52:05;;;;;;;8.13;3.47;;;22.20;61.80;;;;;;6365494;22;20011;-73
2020/12/17 03:54:31;;;;;;;5.55;1.70;;;22.20;61.80;;;;;;6364549;22;20337;-72
2020/12/17 03:56:58;;;;;;;7.72;1.85;;;22.20;61.80;;;;;;6365857;22;19995;-72
2020/12/17 03:59:24;;;;;;;4.00;1.42;;;22.20;61.70;;;;;;6364718;22;19999;-78
2020/12/17 04:01:51;;;;;;;3.25;1.33;;;22.20;61.70;;;;;;6366038;22;20020;-78
2020/12/17 04:04:17;;;;;;;6.18;2.83;;;22.20;61.60;;;;;;6367030;22;20030;-75
2020/12/17 04:06:44;;;;;;;6.30;2.55;;;22.20;61.60;;;;;;6366992;22;19993;-80
2020/12/17 04:09:10;;;;;;;6.30;2.40;;;22.20;61.70;;;;;;6367147;22;19998;-75
2020/12/17 04:11:37;;;;;;;5.10;1.60;;;22.20;61.70;;;;;;6366261;22;20017;-76
2020/12/17 04:14:03;;;;;;;5.10;1.42;;;22.20;61.80;;;;;;6367590;22;20002;-80
2020/12/17 04:16:29;;;;;;;4.93;2.03;;;22.20;61.80;;;;;;6366388;22;20059;-73
2020/12/17 04:19:36;;;;;;;6.30;3.15;;;22.20;61.80;;;;;;6368612;22;20005;-75
2020/12/17 04:22:19;;;;;;;4.10;1.33;;;22.20;61.80;;;;;;6367530;22;19998;-76
2020/12/17 04:25:25;;;;;;;6.07;2.35;;;22.20;61.80;;;;;;6365964;22;20026;-75
2020/12/17 04:28:31;;;;;;;9.20;2.67;;;22.20;61.70;;;;;;6367396;22;20003;-76
2020/12/17 04:30:58;;;;;;;6.10;1.67;;;22.20;61.60;;;;;;6366762;22;20425;-76
2020/12/17 04:33:24;;;;;;;8.10;2.58;;;22.20;61.60;;;;;;6365964;22;20002;-76
2020/12/17 04:35:51;;;;;;;6.30;2.53;;;22.20;61.60;;;;;;6367362;22;20413;-75
2020/12/17 04:38:17;;;;;;;18.85;14.73;;;22.20;61.50;;;;;;6366369;22;20044;-75
2020/12/17 04:40:44;;;;;;;14.80;11.48;;;22.20;61.40;;;;;;6367310;22;20073;-75
2020/12/17 04:43:11;;;;;;;10.30;8.23;;;22.20;61.30;;;;;;6367657;22;20009;-74
2020/12/17 04:45:39;;;;;;;10.15;5.50;;;22.30;61.30;;;;;;6366684;22;20422;-75
2020/12/17 04:48:07;;;;;;;9.23;5.03;;;22.30;61.30;;;;;;6367476;22;20059;-75
2020/12/17 04:50:35;;;;;;;9.63;4.63;;;22.30;61.20;;;;;;6365006;22;20037;-73
2020/12/17 04:53:03;;;;;;;7.07;3.40;;;22.30;61.20;;;;;;6366966;22;20002;-74
2020/12/17 04:55:31;;;;;;;10.32;3.25;;;22.30;61.20;;;;;;6365432;22;20496;-75
2020/12/17 04:58:00;;;;;;;14.02;3.35;;;22.30;61.20;;;;;;6367630;22;20139;-75
2020/12/17 05:00:27;;;;;;;12.60;4.70;;;22.30;61.20;;;;;;6366758;22;20443;-77
2020/12/17 05:03:04;;;;;;;6.85;2.28;;;22.30;61.20;;;;;;6365944;22;20026;-75
2020/12/17 05:05:30;;;;;;;7.22;2.35;;;22.30;61.20;;;;;;6368332;22;20003;-74
2020/12/17 05:07:58;;;;;;;17.15;3.55;;;22.40;61.30;;;;;;6365513;22;19999;-74
2020/12/17 05:10:24;;;;;;;17.30;2.55;;;22.40;61.30;;;;;;6367083;22;20029;-75
2020/12/17 05:12:51;;;;;;;13.95;2.60;;;22.40;61.30;;;;;;6365445;22;20034;-74
2020/12/17 05:15:26;;;;;;;15.80;2.15;;;22.40;61.30;;;;;;6365990;22;20006;-77
2020/12/17 05:17:53;;;;;;;8.35;2.83;;;22.40;61.20;;;;;;6366488;22;20002;-75
2020/12/17 05:20:20;;;;;;;9.00;1.65;;;22.40;61.00;;;;;;6365829;22;19994;-75
2020/12/17 05:22:48;;;;;;;8.00;2.35;;;22.40;60.90;;;;;;6360743;22;19998;-75
2020/12/17 05:25:16;;;;;;;4.30;1.88;;;22.40;60.90;;;;;;6363921;22;20077;-76
2020/12/17 05:27:43;;;;;;;8.30;2.08;;;22.40;60.80;;;;;;6365592;22;20073;-74
2020/12/17 05:30:09;;;;;;;6.40;2.05;;;22.50;60.70;;;;;;6363312;22;20014;-75
2020/12/17 05:32:41;;;;;;;7.50;2.30;;;22.50;60.60;;;;;;6367179;22;19998;-73
2020/12/17 05:35:12;;;;;;;6.70;1.77;;;22.50;60.50;;;;;;6366540;22;20521;-74
2020/12/17 05:37:41;;;;;;;2.67;1.52;;;22.50;60.40;;;;;;6365851;22;20030;-74
2020/12/17 05:40:12;;;;;;;5.45;1.20;;;22.50;60.20;;;;;;6365378;22;20065;-74
2020/12/17 05:42:38;;;;;;;4.22;1.27;;;22.50;60.20;;;;;;6366478;22;20050;-76
2020/12/17 05:45:23;;;;;;;10.00;2.03;;;22.60;60.10;;;;;;6366312;22;20011;-74
2020/12/17 05:48:08;;;;;;;2.38;1.30;;;22.60;60.00;;;;;;6336219;22;20421;-73
2020/12/17 05:50:47;;;;;;;3.28;1.23;;;22.60;59.90;;;;;;6364614;22;20014;-74
2020/12/17 05:53:16;;;;;;;7.53;1.70;;;22.60;59.90;;;;;;6337709;22;20059;-74
2020/12/17 05:55:43;;;;;;;5.68;1.75;;;22.70;59.90;;;;;;6364439;22;19998;-74
2020/12/17 05:58:11;;;;;;;2.55;1.42;;;22.70;59.80;;;;;;6338361;22;19998;-74
2020/12/17 06:00:38;;;;;;;5.53;1.75;;;22.70;59.80;;;;;;6365176;22;20715;-73
2020/12/17 06:03:12;;;;;;;4.38;2.00;;;22.70;59.70;;;;;;6365691;22;19994;-74
2020/12/17 06:05:44;;;;;;;5.75;1.67;;;22.70;59.70;;;;;;6366430;22;19995;-73
2020/12/17 06:08:17;;;;;;;4.30;1.92;;;22.70;59.60;;;;;;6363838;22;19999;-74
2020/12/17 06:10:48;;;;;;;7.38;1.83;;;22.80;59.70;;;;;;6366167;22;20020;-74
2020/12/17 06:13:16;;;;;;;5.28;2.00;;;22.80;59.60;;;;;;6337377;22;20002;-74
2020/12/17 06:15:48;;;;;;;4.43;1.25;;;22.80;59.60;;;;;;6366371;22;20081;-73
2020/12/17 06:18:19;;;;;;;2.17;1.63;;;22.90;60.30;;;;;;6358299;22;20068;-73
2020/12/17 06:20:49;;;;;;;6.35;1.63;;;22.90;59.60;;;;;;6365705;22;20058;-74
2020/12/17 06:23:15;;;;;;;5.65;2.17;;;22.90;59.60;;;;;;6366278;22;20359;-73
2020/12/17 06:25:45;;;;;;;3.72;2.25;;;22.90;59.60;;;;;;6364567;22;19995;-73
2020/12/17 06:28:38;;;;;;;6.95;1.63;;;22.90;59.60;;;;;;6365663;22;19995;-73
2020/12/17 06:31:05;;;;;;;4.55;1.40;;;23.00;59.60;;;;;;6365410;22;20010;-71
2020/12/17 06:33:35;;;;;;;3.25;0.90;;;23.00;59.60;;;;;;6337679;22;20747;-74
2020/12/17 06:36:08;;;;;;;5.22;1.70;;;23.00;59.50;;;;;;6366084;22;20071;-74
2020/12/17 06:38:36;;;;;;;11.23;4.10;;;23.00;60.10;;;;;;6364395;22;20367;-73
2020/12/17 06:41:16;;;;;;;3.78;1.48;;;23.00;59.50;;;;;;6366100;22;20037;-74
2020/12/17 06:43:43;;;;;;;5.75;1.00;;;23.10;59.60;;;;;;6365166;22;20003;-73
2020/12/17 06:46:36;;;;;;;8.07;1.80;;;23.10;59.50;;;;;;6338121;22;20006;-74
2020/12/17 06:49:07;;;;;;;2.40;1.35;;;23.10;59.40;;;;;;6366184;22;19998;-74
2020/12/17 06:51:39;;;;;;;5.65;2.08;;;23.10;59.40;;;;;;6364683;22;20006;-74
2020/12/17 06:54:24;;;;;;;4.70;1.73;;;23.20;59.40;;;;;;6365772;22;20003;-72
2020/12/17 06:57:09;;;;;;;9.25;2.55;;;23.20;59.30;;;;;;6363840;22;20364;-72
2020/12/17 06:59:37;;;;;;;5.82;1.67;;;23.20;59.30;;;;;;6365080;22;20051;-73
2020/12/17 07:02:05;;;;;;;3.63;1.63;;;23.20;59.20;;;;;;6366393;22;20026;-74
2020/12/17 07:04:39;;;;;;;5.82;1.88;;;23.20;59.10;;;;;;6336094;22;20010;-74
2020/12/17 07:07:17;;;;;;;5.95;2.33;;;23.30;59.10;;;;;;6366242;22;20541;-73
2020/12/17 07:09:54;;;;;;;1.27;0.90;;;23.30;59.00;;;;;;6364381;22;20038;-73
2020/12/17 07:12:36;;;;;;;3.10;1.55;;;23.30;59.00;;;;;;6365736;22;20002;-73
2020/12/17 07:15:26;;;;;;;3.75;1.00;;;23.30;58.90;;;;;;6365832;22;20081;-73
2020/12/17 07:17:52;;;;;;;2.13;1.25;;;23.30;58.80;;;;;;6364274;22;20034;-73
2020/12/17 07:20:38;;;;;;;5.65;1.50;;;23.30;58.80;;;;;;6366015;22;20005;-73
2020/12/17 07:23:04;;;;;;;5.65;1.63;;;23.30;58.80;;;;;;6364799;22;19998;-75
2020/12/17 07:25:36;;;;;;;4.93;1.70;;;23.30;58.80;;;;;;6365032;22;20013;-72
2020/12/17 07:28:02;;;;;;;6.30;1.33;;;23.30;58.80;;;;;;6366543;22;20325;-72
2020/12/17 07:30:29;;;;;;;4.72;1.38;;;23.30;58.80;;;;;;6364439;22;20006;-73
2020/12/17 07:32:56;;;;;;;5.22;1.30;;;23.40;58.90;;;;;;6365354;22;19998;-73
2020/12/17 07:35:27;;;;;;;9.77;2.17;;;23.40;58.80;;;;;;6364074;22;20138;-72
2020/12/17 07:37:58;;;;;;;4.60;1.60;;;23.40;58.80;;;;;;6365954;22;20028;-72
2020/12/17 07:40:28;;;;;;;5.10;1.15;;;23.50;58.70;;;;;;6364774;22;20386;-72
2020/12/17 07:43:14;;;;;;;3.13;1.10;;;23.50;58.50;;;;;;6365275;22;19990;-74
2020/12/17 07:45:49;;;;;;;3.67;1.10;;;23.60;58.50;;;;;;6365570;22;19999;-75
2020/12/17 07:48:40;;;;;;;2.63;0.82;;;23.60;58.30;;;;;;6364707;22;20007;-73
2020/12/17 07:51:08;;;;;;;4.97;1.17;;;23.60;58.20;;;;;;6364724;22;20036;-75
2020/12/17 07:53:37;;;;;;;3.35;1.20;;;23.70;58.10;;;;;;6365365;22;19995;-75
2020/12/17 07:56:05;;;;;;;4.95;1.60;;;23.60;58.00;;;;;;6364637;22;19994;-73
2020/12/17 07:58:32;;;;;;;6.22;1.08;;;23.70;57.80;;;;;;6365595;22;20323;-73
2020/12/17 08:01:00;;;;;;;3.55;1.23;;;23.80;57.70;;;;;;6363702;22;20072;-73
2020/12/17 08:03:27;;;;;;;5.95;1.63;;;23.90;57.60;;;;;;6365234;22;20077;-74
2020/12/17 08:06:05;;;;;;;4.82;1.38;;;23.90;57.30;;;;;;6364008;22;20003;-73
2020/12/17 08:08:32;;;;;;;1.80;0.77;;;24.00;57.20;;;;;;6365159;22;20246;-72
2020/12/17 08:11:00;;;;;;;3.50;1.30;;;24.00;57.10;;;;;;6364925;22;20006;-73
2020/12/17 08:13:27;;;;;;;8.30;1.38;;;24.00;57.10;;;;;;6336960;22;20034;-72
2020/12/17 08:15:55;;;;;;;5.97;1.10;;;24.00;57.00;;;;;;6365381;22;20418;-73
2020/12/17 08:18:35;;;;;;;3.78;1.08;;;24.00;56.90;;;;;;6364098;22;20040;-73
2020/12/17 08:21:10;;;;;;;3.95;1.35;;;24.00;56.90;;;;;;6365334;22;20081;-73
2020/12/17 08:23:39;;;;;;;5.60;2.30;;;23.90;57.00;;;;;;6364468;22;19999;-73
2020/12/17 08:26:09;;;;;;;7.22;1.23;;;23.90;57.00;;;;;;6365148;22;20071;-72
2020/12/17 08:28:39;;;;;;;5.10;1.85;;;24.00;57.10;;;;;;6365416;22;20006;-73
2020/12/17 08:31:18;;;;;;;5.85;1.27;;;23.90;56.90;;;;;;6364345;22;20010;-73
2020/12/17 08:33:50;;;;;;;6.70;1.30;;;24.00;56.80;;;;;;6365138;22;20504;-74
2020/12/17 08:36:21;;;;;;;3.22;1.30;;;24.00;56.80;;;;;;6364101;22;20018;-73
2020/12/17 08:39:00;;;;;;;2.50;1.20;;;24.00;56.90;;;;;;6365073;22;20044;-73
2020/12/17 08:41:36;;;;;;;3.15;1.02;;;24.00;56.90;;;;;;6364847;22;20448;-73
2020/12/17 08:44:05;;;;;;;8.02;2.08;;;24.00;56.80;;;;;;6363934;22;20073;-73
2020/12/17 08:46:38;;;;;;;5.28;1.80;;;24.10;56.80;;;;;;6365572;22;19995;-73
2020/12/17 08:49:08;;;;;;;9.35;2.00;;;24.10;56.80;;;;;;6364236;22;20037;-73
2020/12/17 08:51:36;;;;;;;4.22;1.27;;;24.10;56.80;;;;;;6367409;22;20094;-74
2020/12/17 08:54:04;;;;;;;6.35;1.67;;;24.20;56.80;;;;;;6366547;22;19998;-74
2020/12/17 08:56:31;;;;;;;5.30;1.60;;;24.20;56.70;;;;;;6366362;22;20295;-72
2020/12/17 08:59:03;;;;;;;8.43;1.98;;;24.20;56.60;;;;;;6366727;22;20032;-73
2020/12/17 09:01:35;;;;;;;6.55;1.80;;;24.30;56.70;;;;;;6337468;22;20371;-73
2020/12/17 09:04:09;;;;;;;8.95;1.70;;;24.30;56.70;;;;;;6366928;22;20430;-73
2020/12/17 09:06:39;;;;;;;7.35;2.05;;;24.30;56.80;;;;;;6366214;22;20059;-73
2020/12/17 09:09:18;;;;;;;10.38;1.60;;;24.30;56.70;;;;;;6366763;22;20003;-73
2020/12/17 09:11:47;;;;;;;6.97;2.55;;;24.30;56.80;;;;;;6367004;22;20002;-74
2020/12/17 09:14:21;;;;;;;10.50;2.85;;;24.30;56.80;;;;;;6365797;22;20001;-73
2020/12/17 09:16:49;;;;;;;5.30;1.85;;;24.40;56.80;;;;;;6366679;22;20026;-73
2020/12/17 09:19:16;;;;;;;7.30;1.92;;;24.50;56.70;;;;;;6365845;22;20002;-73
2020/12/17 09:21:58;;;;;;;6.55;1.63;;;24.60;56.60;;;;;;6366995;22;20166;-74
2020/12/17 09:24:27;;;;;;;11.52;2.55;;;24.60;56.30;;;;;;6366673;22;20002;-75
2020/12/17 09:26:55;;;;;;;6.72;1.75;;;24.70;56.10;;;;;;6366124;22;20429;-72
2020/12/17 09:29:22;;;;;;;5.72;1.88;;;24.60;56.00;;;;;;6366899;22;19998;-73
2020/12/17 09:31:48;;;;;;;6.85;2.03;;;24.70;55.80;;;;;;6365178;22;20001;-73
2020/12/17 09:34:18;;;;;;;5.43;2.42;;;24.80;55.60;;;;;;6366807;22;19998;-74
2020/12/17 09:37:06;;;;;;;7.68;2.42;;;24.80;55.40;;;;;;6365664;22;20026;-73
2020/12/17 09:39:43;;;;;;;8.18;2.67;;;24.80;55.40;;;;;;6366342;22;20005;-74
2020/12/17 09:42:29;;;;;;;7.78;2.78;;;24.80;55.40;;;;;;6366605;22;20086;-74
2020/12/17 09:45:36;;;;;;;6.03;2.78;;;24.80;55.50;;;;;;6334269;22;19998;-72
2020/12/17 09:48:59;;;;;;;9.07;3.00;;;24.90;55.40;;;;;;6338211;22;20322;-73
2020/12/17 09:52:05;;;;;;;11.30;4.40;;;25.00;55.80;;;;;;6366251;22;20018;-74
2020/12/17 09:54:51;;;;;;;;;;;25.00;55.00;;;;;;6363107;22;20082;-73
2020/12/17 09:57:58;;;;;;;6.32;3.20;;;25.00;55.00;;;;;;6365303;22;19905;-73
2020/12/17 10:01:04;;;;;;;9.50;3.20;;;25.10;54.80;;;;;;6365476;22;20022;-74
2020/12/17 10:03:50;;;;;;;;;;;25.20;54.80;;;;;;6367416;22;20421;-74
2020/12/17 10:06:17;;;;;;;8.63;5.60;;;25.20;54.70;;;;;;6364587;22;19951;-74
2020/12/17 10:08:43;;;;;;;11.55;8.35;;;25.30;54.70;;;;;;6366863;22;19998;-74
2020/12/17 10:11:49;;;;;;;14.48;10.63;;;25.30;54.70;;;;;;6354889;22;20391;-73
2020/12/17 10:14:56;;;;;;;19.73;10.85;;;25.40;54.60;;;;;;6365873;22;20002;-73
2020/12/17 10:17:41;;;;;;;;;;;25.40;54.50;;;;;;6366795;22;20014;-73
2020/12/17 10:20:47;;;;;;;13.73;12.40;;;25.50;54.30;;;;;;6365014;22;20378;-73
2020/12/17 10:23:33;;;;;;;;;;;25.50;54.30;;;;;;6365997;22;20018;-73
2020/12/17 10:26:39;;;;;;;12.20;10.80;;;25.50;54.30;;;;;;6365950;22;19902;-73
2020/12/17 10:29:45;;;;;;;17.38;8.25;;;25.50;54.40;;;;;;6365842;22;20077;-73
2020/12/17 10:32:52;;;;;;;15.45;7.90;;;25.50;54.60;;;;;;6364369;22;20010;-73
2020/12/17 10:35:58;;;;;;;10.98;6.40;;;25.60;54.60;;;;;;6365751;22;20013;-73
2020/12/17 10:38:24;;;;;;;;;;;25.60;54.60;;;;;;6366741;22;20433;-73
2020/12/17 10:40:50;;;;;;;14.18;6.40;;;25.60;54.70;;;;;;6364529;22;19929;-73
2020/12/17 10:43:17;;;;;;;9.10;5.68;;;25.60;54.80;;;;;;6366235;22;20005;-72
2020/12/17 10:45:43;;;;;;;10.30;5.72;;;25.60;55.00;;;;;;6364540;22;20002;-73
2020/12/17 10:48:09;;;;;;;11.15;5.10;;;25.60;55.10;;;;;;6366251;22;20014;-73
2020/12/17 10:50:36;;;;;;;11.25;4.63;;;25.60;55.20;;;;;;6364297;22;20036;-73
2020/12/17 10:53:02;;;;;;;11.88;4.47;;;25.70;55.70;;;;;;6366317;22;19998;-72
2020/12/17 10:55:29;;;;;;;13.38;5.68;;;25.70;56.00;;;;;;6366629;22;19999;-73
2020/12/17 10:57:55;;;;;;;21.90;5.82;;;25.80;56.50;;;;;;6365362;22;20003;-73
2020/12/17 11:00:22;;;;;;;9.43;5.20;;;25.80;56.60;;;;;;6367222;22;19998;-72
2020/12/17 11:02:49;;;;;;;15.90;5.88;;;25.80;56.90;;;;;;6364553;22;20421;-72
2020/12/17 11:05:15;;;;;;;11.57;5.65;;;25.80;57.00;;;;;;6365560;22;20044;-73
2020/12/17 11:07:42;;;;;;;7.80;4.15;;;25.80;57.20;;;;;;6365304;22;19999;-73
2020/12/17 11:10:09;;;;;;;13.07;5.07;;;25.80;57.30;;;;;;6365685;22;20006;-73
2020/12/17 11:12:36;;;;;;;11.55;4.55;;;25.80;57.20;;;;;;6364882;22;20421;-73
2020/12/17 11:15:03;;;;;;;8.15;4.53;;;25.80;57.10;;;;;;6365287;22;20054;-73
2020/12/17 11:17:30;;;;;;;7.82;2.97;;;25.80;57.00;;;;;;6366012;22;20703;-74
2020/12/17 11:19:57;;;;;;;8.82;2.88;;;25.80;56.80;;;;;;6364674;22;20013;-73
2020/12/17 11:22:24;;;;;;;10.30;2.75;;;25.90;56.80;;;;;;6365765;22;20002;-73
2020/12/17 11:24:50;;;;;;;10.27;2.67;;;26.00;56.60;;;;;;6364387;22;20006;-74
2020/12/17 11:27:17;;;;;;;6.32;2.72;;;26.00;56.30;;;;;;6365319;22;20022;-72
2020/12/17 11:29:44;;;;;;;11.43;3.70;;;26.10;55.90;;;;;;6365329;22;20014;-73
2020/12/17 11:32:10;;;;;;;5.80;2.10;;;26.10;55.80;;;;;;6364925;22;20003;-75
2020/12/17 11:34:37;;;;;;;6.97;2.70;;;26.10;56.30;;;;;;6365946;22;20059;-76
2020/12/17 11:37:03;;;;;;;9.10;2.42;;;26.20;55.80;;;;;;6364198;22;20307;-74
2020/12/17 11:39:29;;;;;;;13.15;2.58;;;26.20;55.40;;;;;;6365940;22;20013;-73
2020/12/17 11:41:56;;;;;;;10.45;2.70;;;26.20;55.30;;;;;;6364226;22;20002;-73
2020/12/17 11:44:25;;;;;;;8.30;2.58;;;26.20;55.10;;;;;;6337770;22;20295;-74
2020/12/17 11:46:52;;;;;;;6.80;2.15;;;26.30;55.10;;;;;;6365014;22;20006;-73
2020/12/17 11:49:19;;;;;;;12.93;2.78;;;26.30;55.20;;;;;;6365008;22;20478;-73
2020/12/17 11:51:49;;;;;;;11.93;2.10;;;26.30;55.10;;;;;;6365176;22;20014;-73
2020/12/17 11:54:17;;;;;;;9.10;3.45;;;26.30;54.80;;;;;;6364505;22;20618;-74
2020/12/17 11:56:49;;;;;;;10.32;3.08;;;26.30;54.70;;;;;;6366274;22;20084;-74
2020/12/17 11:59:17;;;;;;;6.10;3.47;;;26.40;54.80;;;;;;6364469;22;20003;-74
2020/12/17 12:01:45;;;;;;;10.80;3.08;;;26.40;54.80;;;;;;6365916;22;20031;-75
2020/12/17 12:04:11;;;;;;;15.27;4.75;;;26.50;54.60;;;;;;6364006;22;20311;-73
2020/12/17 12:06:38;;;;;;;11.82;3.65;;;26.60;54.70;;;;;;6365567;22;20010;-74
2020/12/17 12:09:44;;;;;;;9.88;2.88;;;26.70;54.60;;;;;;6365629;22;20342;-77
2020/12/17 12:12:50;;;;;;;6.65;2.60;;;26.80;54.20;;;;;;6364248;22;20031;-74
2020/12/17 12:15:56;;;;;;;10.55;2.13;;;26.90;53.80;;;;;;6365331;22;20434;-73
2020/12/17 12:18:42;;;;;;;;;;;27.00;53.70;;;;;;6366025;22;20006;-72
2020/12/17 12:21:31;;;;;;;;;;;27.10;53.60;;;;;;6364847;22;19898;-74
2020/12/17 12:24:37;;;;;;;8.40;1.95;;;27.20;53.20;;;;;;6366004;22;19898;-75
2020/12/17 12:27:45;;;;;;;7.15;2.20;;;27.30;52.90;;;;;;6368538;22;20051;-76
2020/12/17 12:30:51;;;;;;;11.75;3.58;;;27.40;52.40;;;;;;6366500;22;20010;-73
2020/12/17 12:33:17;;;;;;;10.80;3.22;;;27.50;52.10;;;;;;6366425;22;20371;-72
2020/12/17 12:35:44;;;;;;;8.25;3.55;;;27.50;51.90;;;;;;6367290;22;20006;-73
2020/12/17 12:38:10;;;;;;;9.75;2.97;;;27.60;51.90;;;;;;6366174;22;20006;-75
2020/12/17 12:40:37;;;;;;;12.32;2.70;;;27.60;51.90;;;;;;6366758;22;20006;-76
2020/12/17 12:43:03;;;;;;;9.82;2.22;;;27.60;51.80;;;;;;6366752;22;20455;-75
2020/12/17 12:45:30;;;;;;;10.07;2.20;;;27.70;52.00;;;;;;6367704;22;20395;-74
2020/12/17 12:48:36;;;;;;;12.50;3.17;;;27.70;51.90;;;;;;6358217;22;20069;-71
2020/12/17 12:51:42;;;;;;;11.60;2.38;;;27.80;51.90;;;;;;6365219;22;20021;-74
2020/12/17 12:54:48;;;;;;;9.93;2.55;;;27.80;51.80;;;;;;6366542;22;20444;-74
2020/12/17 12:57:55;;;;;;;11.20;2.67;;;27.90;51.80;;;;;;6367845;22;20060;-76
2020/12/17 13:01:01;;;;;;;12.27;2.67;;;27.80;51.90;;;;;;6366469;22;20002;-74
2020/12/17 13:03:27;;;;;;;14.85;3.80;;;27.80;51.90;;;;;;6365437;22;20033;-75
2020/12/17 13:05:54;;;;;;;12.95;3.40;;;27.80;52.00;;;;;;6367574;22;20081;-74
2020/12/17 13:08:21;;;;;;;10.57;4.60;;;27.80;52.10;;;;;;6366185;22;20026;-73
2020/12/17 13:10:48;;;;;;;10.82;3.15;;;27.80;52.40;;;;;;6367149;22;20024;-74
2020/12/17 13:13:14;;;;;;;13.07;3.30;;;27.80;52.40;;;;;;6366090;22;20428;-77